createdAt,value
2018-03-30T00:00:02.037Z,2.3
2018-03-30T00:05:01.751Z,2.2
2018-03-30T00:10:01.968Z,2.2
2018-03-30T00:15:01.621Z,2.2
2018-03-30T00:20:01.386Z,2.2
2018-03-30T00:25:02.230Z,2.2
2018-03-30T00:30:01.354Z,2.2
2018-03-30T00:35:02.660Z,2.2
2018-03-30T00:40:02.039Z,2.2
2018-03-30T00:45:01.936Z,2.2
2018-03-30T00:50:01.425Z,2.3
2018-03-30T00:55:02.310Z,2.2
2018-03-30T01:00:01.252Z,2.2
2018-03-30T01:05:02.099Z,2.2
2018-03-30T01:10:02.017Z,2.2
2018-03-30T01:15:01.353Z,2.2
2018-03-30T01:20:01.321Z,2.2
2018-03-30T01:25:01.208Z,2.2
2018-03-30T01:30:02.650Z,2.3
2018-03-30T01:35:01.430Z,2.2
2018-03-30T01:40:01.432Z,2.2
2018-03-30T01:45:02.012Z,2.2
2018-03-30T01:50:02.486Z,2.1
2018-03-30T01:55:01.842Z,2
2018-03-30T02:00:01.638Z,1.9
2018-03-30T02:05:02.619Z,1.6
2018-03-30T02:10:01.444Z,1.5
2018-03-30T02:15:01.866Z,1.3
2018-03-30T02:20:01.940Z,1.4
2018-03-30T02:25:02.576Z,1.5
2018-03-30T02:30:01.707Z,1.5
2018-03-30T02:35:01.345Z,1.3
2018-03-30T02:40:01.925Z,1.2
2018-03-30T02:45:01.901Z,1
2018-03-30T02:50:01.197Z,0.8
2018-03-30T02:55:01.790Z,0.7
2018-03-30T03:00:01.670Z,0.6
2018-03-30T03:05:01.982Z,0.4
2018-03-30T03:10:01.853Z,0.3
2018-03-30T03:15:02.333Z,0.2
2018-03-30T03:20:01.389Z,0.2
2018-03-30T03:25:01.395Z,0.1
2018-03-30T03:30:01.773Z,0.1
2018-03-30T03:35:02.345Z,0.1
2018-03-30T03:40:01.219Z,0
2018-03-30T03:45:02.001Z,0.1
2018-03-30T03:50:01.986Z,0.3
2018-03-30T03:55:01.885Z,0.3
2018-03-30T04:00:01.405Z,0.5
2018-03-30T04:05:01.207Z,0.5
2018-03-30T04:10:02.491Z,0.4
2018-03-30T04:15:02.174Z,0.4
2018-03-30T04:20:01.500Z,0.4
2018-03-30T04:25:01.333Z,0.4
2018-03-30T04:30:01.909Z,0.3
2018-03-30T04:35:01.738Z,0.2
2018-03-30T04:40:02.009Z,0.2
2018-03-30T04:45:01.875Z,0.1
2018-03-30T04:50:02.034Z,0.1
2018-03-30T04:55:02.173Z,0
2018-03-30T05:00:01.762Z,-0.1
2018-03-30T05:05:01.540Z,-0.2
2018-03-30T05:10:01.323Z,-0.2
2018-03-30T05:15:02.179Z,-0.3
2018-03-30T05:20:02.520Z,-0.3
2018-03-30T05:25:01.637Z,-0.2
2018-03-30T05:30:02.039Z,-0.2
2018-03-30T05:35:02.560Z,-0.1
2018-03-30T05:40:01.582Z,0.1
2018-03-30T05:45:01.857Z,0.3
2018-03-30T05:50:02.520Z,0.6
2018-03-30T05:55:01.869Z,0.8
2018-03-30T06:00:01.360Z,1.1
2018-03-30T06:05:01.941Z,1.5
2018-03-30T06:10:01.860Z,1.9
2018-03-30T06:15:02.160Z,2.2
2018-03-30T06:20:01.416Z,2.5
2018-03-30T06:25:02.060Z,3.3
2018-03-30T06:30:01.374Z,3.5
2018-03-30T06:35:02.182Z,3.8
2018-03-30T06:40:02.480Z,4.6
2018-03-30T06:45:01.490Z,4.9
2018-03-30T06:50:01.797Z,5
2018-03-30T06:55:01.752Z,5.3
2018-03-30T07:00:01.772Z,5.2
2018-03-30T07:05:01.632Z,5.4
2018-03-30T07:10:01.571Z,5.4
2018-03-30T07:15:02.029Z,5.3
2018-03-30T07:20:01.950Z,5.4
2018-03-30T07:25:02.152Z,5.3
2018-03-30T07:30:01.844Z,5.6
2018-03-30T07:35:02.391Z,5.9
2018-03-30T07:40:01.366Z,6
2018-03-30T07:45:02.267Z,6.1
2018-03-30T07:50:01.400Z,6.2
2018-03-30T07:55:02.352Z,6.2
2018-03-30T08:00:01.901Z,6.4
2018-03-30T08:05:01.846Z,6.1
2018-03-30T08:10:02.546Z,6
2018-03-30T08:15:01.878Z,6.1
2018-03-30T08:20:02.386Z,6.1
2018-03-30T08:25:01.677Z,6.3
2018-03-30T08:30:01.689Z,6.4
2018-03-30T08:35:01.929Z,6.3
2018-03-30T08:40:02.010Z,6.5
2018-03-30T08:45:01.498Z,7.1
2018-03-30T08:50:01.593Z,7.2
2018-03-30T08:55:01.246Z,7.2
2018-03-30T09:00:02.288Z,7.2
2018-03-30T09:05:01.190Z,7.2
2018-03-30T09:10:01.311Z,7.7
2018-03-30T09:15:01.921Z,7.7
2018-03-30T09:20:02.188Z,7.7
2018-03-30T09:25:02.060Z,7.7
2018-03-30T09:30:01.781Z,8
2018-03-30T09:35:01.862Z,8
2018-03-30T09:40:02.224Z,8.2
2018-03-30T09:45:01.719Z,8.5
2018-03-30T09:50:01.990Z,8.9
2018-03-30T09:55:02.025Z,8.7
2018-03-30T10:00:01.937Z,8.3
2018-03-30T10:05:01.223Z,8.1
2018-03-30T10:10:01.271Z,7
2018-03-30T10:15:02.025Z,7
2018-03-30T10:20:01.601Z,7
2018-03-30T10:25:01.740Z,7
2018-03-30T10:30:01.763Z,8.2
2018-03-30T10:35:01.898Z,8.4
2018-03-30T10:40:01.819Z,9.1
2018-03-30T10:45:02.385Z,9.1
2018-03-30T10:50:01.470Z,9.3
2018-03-30T10:55:01.456Z,9.4
2018-03-30T11:00:01.297Z,9.6
2018-03-30T11:05:02.073Z,9.6
2018-03-30T11:10:01.941Z,10.3
2018-03-30T11:15:01.685Z,10.4
2018-03-30T11:20:01.798Z,10.4
2018-03-30T11:25:01.698Z,10.5
2018-03-30T11:30:01.207Z,10.4
2018-03-30T11:35:02.241Z,10.4
2018-03-30T11:40:01.996Z,10.5
2018-03-30T11:45:01.876Z,10.1
2018-03-30T11:50:02.001Z,9.3
2018-03-30T11:55:02.430Z,9
2018-03-30T12:00:01.886Z,9.7
2018-03-30T12:05:01.676Z,10.5
2018-03-30T12:10:01.542Z,10.6
2018-03-30T12:15:02.592Z,10.9
2018-03-30T12:20:01.259Z,10.7
2018-03-30T12:25:01.571Z,10.2
2018-03-30T12:30:02.039Z,10
2018-03-30T12:35:02.015Z,9.8
2018-03-30T12:40:01.783Z,10
2018-03-30T12:45:01.833Z,10.2
2018-03-30T12:50:02.972Z,11.7
2018-03-30T12:55:01.330Z,12.9
2018-03-30T13:00:02.052Z,14.9
2018-03-30T13:05:01.883Z,13.6
2018-03-30T13:10:02.290Z,13.6
2018-03-30T13:15:01.531Z,13.6
2018-03-30T13:20:01.365Z,14.4
2018-03-30T13:25:01.750Z,14
2018-03-30T13:30:02.352Z,10.6
2018-03-30T13:35:01.989Z,11.7
2018-03-30T13:40:01.901Z,14.4
2018-03-30T13:45:01.680Z,16.6
2018-03-30T13:50:02.149Z,18.2
2018-03-30T13:55:01.464Z,19.2
2018-03-30T14:00:01.683Z,19.9
2018-03-30T14:05:02.490Z,19.8
2018-03-30T14:10:01.388Z,20.2
2018-03-30T14:15:02.156Z,19.9
2018-03-30T14:20:02.067Z,20.1
2018-03-30T14:25:02.052Z,18.5
2018-03-30T14:30:01.363Z,18.2
2018-03-30T14:35:01.876Z,18.1
2018-03-30T14:40:02.219Z,18.9
2018-03-30T14:45:01.424Z,18.8
2018-03-30T14:50:01.901Z,18.1
2018-03-30T14:55:01.512Z,18.3
2018-03-30T15:00:02.457Z,18.1
2018-03-30T15:05:02.041Z,17.7
2018-03-30T15:10:01.677Z,17.4
2018-03-30T15:15:01.787Z,16.7
2018-03-30T15:20:02.032Z,16.5
2018-03-30T15:25:01.661Z,16.4
2018-03-30T15:30:02.011Z,15.7
2018-03-30T15:35:02.707Z,15.6
2018-03-30T15:40:02.460Z,15.4
2018-03-30T15:45:01.923Z,15.7
2018-03-30T15:50:02.019Z,15.2
2018-03-30T15:55:02.166Z,14.8
2018-03-30T16:00:01.370Z,14.5
2018-03-30T16:05:01.775Z,13.5
2018-03-30T16:10:01.748Z,12.9
2018-03-30T16:15:01.975Z,12.1
2018-03-30T16:20:01.698Z,9.8
2018-03-30T16:25:01.682Z,9.5
2018-03-30T16:30:02.105Z,9.3
2018-03-30T16:35:01.962Z,9
2018-03-30T16:40:01.885Z,8.3
2018-03-30T16:45:01.914Z,8.3
2018-03-30T16:50:02.324Z,8.2
2018-03-30T16:55:02.147Z,8
2018-03-30T17:00:01.702Z,6.4
2018-03-30T17:05:01.990Z,5.7
2018-03-30T17:10:01.657Z,5.2
2018-03-30T17:15:01.460Z,4.7
2018-03-30T17:20:02.146Z,4.5
2018-03-30T17:25:01.926Z,4.2
2018-03-30T17:30:01.861Z,4
2018-03-30T17:35:02.163Z,3.9
2018-03-30T17:40:02.180Z,3.8
2018-03-30T17:45:02.057Z,3.6
2018-03-30T17:50:01.280Z,3.5
2018-03-30T17:55:01.778Z,3.4
2018-03-30T18:00:02.013Z,3.3
2018-03-30T18:05:01.747Z,3.3
2018-03-30T18:10:02.082Z,3.3
2018-03-30T18:15:02.190Z,3.2
2018-03-30T18:20:01.943Z,3.2
2018-03-30T18:25:01.893Z,3.2
2018-03-30T18:30:01.532Z,3.2
2018-03-30T18:35:01.951Z,3.2
2018-03-30T18:40:02.124Z,3.1
2018-03-30T18:45:01.566Z,3.1
2018-03-30T18:50:01.619Z,3
2018-03-30T18:55:01.979Z,2.9
2018-03-30T19:00:02.206Z,2.9
2018-03-30T19:05:01.269Z,2.9
2018-03-30T19:10:01.246Z,3
2018-03-30T19:15:01.492Z,3
2018-03-30T19:20:01.666Z,3.2
2018-03-30T19:25:01.937Z,3.3
2018-03-30T19:30:01.195Z,3.4
2018-03-30T19:35:02.434Z,3.4
2018-03-30T19:40:01.942Z,3.5
2018-03-30T19:45:01.342Z,3.5
2018-03-30T19:50:01.280Z,3.5
2018-03-30T19:55:01.618Z,3.4
2018-03-30T20:00:01.583Z,3.4
2018-03-30T20:05:01.751Z,3.4
2018-03-30T20:10:01.812Z,3.4
2018-03-30T20:15:01.683Z,3.3
2018-03-30T20:20:01.246Z,3.2
2018-03-30T20:25:02.610Z,3.2
2018-03-30T20:30:01.484Z,3.1
2018-03-30T20:35:01.612Z,3.1
2018-03-30T20:40:01.839Z,3
2018-03-30T20:45:01.810Z,3
2018-03-30T20:50:01.487Z,2.9
2018-03-30T20:55:01.860Z,2.9
2018-03-30T21:00:01.700Z,2.8
2018-03-30T21:05:02.165Z,2.8
2018-03-30T21:10:01.951Z,2.7
2018-03-30T21:15:02.432Z,2.7
2018-03-30T21:20:01.387Z,2.6
2018-03-30T21:25:01.395Z,2.5
2018-03-30T21:30:01.649Z,2.5
2018-03-30T21:35:01.645Z,2.5
2018-03-30T21:40:01.257Z,2.5
2018-03-30T21:45:01.883Z,2.5
2018-03-30T21:50:02.168Z,2.5
2018-03-30T21:55:01.318Z,2.4
2018-03-30T22:00:02.021Z,2.4
2018-03-30T22:05:01.966Z,2.3
2018-03-30T22:10:02.024Z,2.3
2018-03-30T22:15:01.539Z,2.3
2018-03-30T22:20:02.171Z,2.3
2018-03-30T22:25:02.013Z,2.3
2018-03-30T22:30:01.564Z,2.3
2018-03-30T22:35:01.185Z,2.3
2018-03-30T22:40:02.062Z,2.3
2018-03-30T22:45:01.476Z,2.2
2018-03-30T22:50:01.556Z,2.2
2018-03-30T22:55:01.780Z,2.2
2018-03-30T23:00:02.230Z,2.3
2018-03-30T23:05:01.986Z,2.3
2018-03-30T23:10:01.810Z,2.2
2018-03-30T23:15:01.290Z,2.2
2018-03-30T23:20:01.711Z,2.1
2018-03-30T23:25:01.418Z,2.1
2018-03-30T23:30:01.393Z,2.2
2018-03-30T23:35:02.297Z,2.1
2018-03-30T23:40:01.894Z,2.2
2018-03-30T23:45:01.231Z,2.2
2018-03-30T23:50:01.847Z,2.2
2018-03-30T23:55:01.966Z,2.2
